createdAt,value
2023-02-22T00:01:28.409Z,100849.50
2023-02-22T00:03:58.543Z,100851.34
2023-02-22T00:06:26.542Z,100846.97
2023-02-22T00:08:55.769Z,100838.22
2023-02-22T00:11:24.182Z,100838.09
2023-02-22T00:13:52.288Z,100829.09
2023-02-22T00:16:22.657Z,100826.41
2023-02-22T00:18:51.105Z,100822.75
2023-02-22T00:21:21.231Z,100824.31
2023-02-22T00:23:50.554Z,100822.50
2023-02-22T00:26:24.267Z,100814.31
2023-02-22T00:28:54.739Z,100814.19
2023-02-22T00:31:23.723Z,100818.44
2023-02-22T00:33:51.883Z,100811.97
2023-02-22T00:36:21.688Z,100813.56
2023-02-22T00:38:50.005Z,100814.25
2023-02-22T00:41:18.642Z,100810.47
2023-02-22T00:43:46.841Z,100812.78
2023-02-22T00:46:15.358Z,100806.56
2023-02-22T00:48:43.624Z,100810.94
2023-02-22T00:51:12.232Z,100801.91
2023-02-22T00:53:41.968Z,100812.63
2023-02-22T00:56:10.432Z,100807.28
2023-02-22T00:58:38.566Z,100803.03
2023-02-22T01:01:07.026Z,100805.38
2023-02-22T01:03:35.495Z,100794.09
2023-02-22T01:06:03.645Z,100795.19
2023-02-22T01:08:32.715Z,100796.88
2023-02-22T01:11:02.146Z,100789.69
2023-02-22T01:13:30.220Z,100789.69
2023-02-22T01:15:58.308Z,100782.66
2023-02-22T01:18:27.080Z,100783.50
2023-02-22T01:20:55.271Z,100778.28
2023-02-22T01:23:23.290Z,100786.56
2023-02-22T01:25:51.339Z,100784.03
2023-02-22T01:28:22.575Z,100774.44
2023-02-22T01:30:50.830Z,100779.66
2023-02-22T01:33:18.924Z,100772.47
2023-02-22T01:35:47.515Z,100770.06
2023-02-22T01:38:15.570Z,100776.25
2023-02-22T01:40:45.824Z,100773.56
2023-02-22T01:43:23.354Z,100770.78
2023-02-22T01:45:57.425Z,100774.44
2023-02-22T01:48:32.030Z,100772.63
2023-02-22T01:51:03.792Z,100768.97
2023-02-22T01:53:36.582Z,100760.66
2023-02-22T01:56:05.877Z,100755.28
2023-02-22T01:58:39.420Z,100748.97
2023-02-22T02:01:08.935Z,100751.38
2023-02-22T02:03:39.906Z,100749.44
2023-02-22T02:06:12.358Z,100748.69
2023-02-22T02:08:49.978Z,100738.97
2023-02-22T02:11:21.285Z,100746.03
2023-02-22T02:13:55.200Z,100740.81
2023-02-22T02:16:24.948Z,100735.72
2023-02-22T02:18:53.649Z,100735.59
2023-02-22T02:21:44.853Z,100739.22
2023-02-22T02:24:36.051Z,100735.00
2023-02-22T02:27:12.733Z,100724.16
2023-02-22T02:30:27.570Z,100723.91
2023-02-22T02:33:00.118Z,100723.75
2023-02-22T02:35:39.501Z,100729.97
2023-02-22T02:38:13.830Z,100714.88
2023-02-22T02:40:49.555Z,100716.56
2023-02-22T02:43:26.487Z,100713.19
2023-02-22T02:46:00.264Z,100716.56
2023-02-22T02:48:32.624Z,100718.69
2023-02-22T02:51:02.772Z,100713.91
2023-02-22T02:53:36.269Z,100715.72
2023-02-22T02:56:05.068Z,100718.56
2023-02-22T02:58:33.426Z,100717.56
2023-02-22T03:01:04.468Z,100718.56
2023-02-22T03:03:53.655Z,100714.28
2023-02-22T03:06:49.092Z,100709.94
2023-02-22T03:09:28.286Z,100708.09
2023-02-22T03:12:09.347Z,100708.09
2023-02-22T03:14:43.355Z,100712.47
2023-02-22T03:17:19.280Z,100714.19
2023-02-22T03:19:53.233Z,100714.19
2023-02-22T03:22:27.939Z,100702.34
2023-02-22T03:25:08.993Z,100696.00
2023-02-22T03:27:43.802Z,100705.75
2023-02-22T03:30:17.627Z,100696.16
2023-02-22T03:32:58.981Z,100687.97
2023-02-22T03:35:34.396Z,100691.63
2023-02-22T03:38:07.473Z,100694.16
2023-02-22T03:40:39.759Z,100682.75
2023-02-22T03:43:11.004Z,100679.09
2023-02-22T03:45:43.589Z,100678.38
2023-02-22T03:48:21.085Z,100680.78
2023-02-22T03:50:52.717Z,100679.81
2023-02-22T03:53:23.343Z,100669.69
2023-02-22T03:55:54.294Z,100680.97
2023-02-22T03:58:25.214Z,100672.94
2023-02-22T04:00:54.392Z,100671.69
2023-02-22T04:03:23.829Z,100673.28
2023-02-22T04:05:53.596Z,100666.78
2023-02-22T04:08:21.975Z,100683.44
2023-02-22T04:10:50.353Z,100666.53
2023-02-22T04:13:18.690Z,100669.75
2023-02-22T04:15:47.002Z,100670.91
2023-02-22T04:18:17.480Z,100699.91
2023-02-22T04:20:46.537Z,100690.25
2023-02-22T04:23:17.825Z,100683.00
2023-02-22T04:25:46.184Z,100683.44
2023-02-22T04:28:14.654Z,100687.06
2023-02-22T04:30:44.150Z,100677.22
2023-02-22T04:33:12.844Z,100679.09
2023-02-22T04:35:42.309Z,100686.63
2023-02-22T04:38:11.593Z,100671.94
2023-02-22T04:40:41.154Z,100678.16
2023-02-22T04:43:09.427Z,100684.38
2023-02-22T04:45:37.423Z,100683.66
2023-02-22T04:48:05.785Z,100692.94
2023-02-22T04:50:33.752Z,100682.50
2023-02-22T04:53:01.858Z,100703.19
2023-02-22T04:55:30.021Z,100711.63
2023-02-22T04:57:59.415Z,100691.31
2023-02-22T05:00:27.660Z,100690.34
2023-02-22T05:02:55.730Z,100691.31
2023-02-22T05:05:24.030Z,100692.19
2023-02-22T05:07:52.688Z,100698.38
2023-02-22T05:10:20.957Z,100692.31
2023-02-22T05:12:49.071Z,100696.81
2023-02-22T05:15:21.460Z,100696.53
2023-02-22T05:17:50.112Z,100725.69
2023-02-22T05:20:25.650Z,100712.28
2023-02-22T05:22:54.084Z,100708.88
2023-02-22T05:25:22.084Z,100706.50
2023-02-22T05:27:59.432Z,100714.91
2023-02-22T05:30:32.029Z,100714.31
2023-02-22T05:33:03.377Z,100720.91
2023-02-22T05:35:31.759Z,100732.00
2023-02-22T05:38:03.272Z,100723.47
2023-02-22T05:40:42.077Z,100731.19
2023-02-22T05:43:10.699Z,100736.06
2023-02-22T05:45:40.323Z,100738.59
2023-02-22T05:48:08.659Z,100728.81
2023-02-22T05:50:36.766Z,100731.72
2023-02-22T05:53:05.708Z,100741.59
2023-02-22T05:55:33.793Z,100719.34
2023-02-22T05:58:02.309Z,100729.31
2023-02-22T06:00:31.908Z,100746.84
2023-02-22T06:03:13.056Z,100728.13
2023-02-22T06:05:41.401Z,100720.38
2023-02-22T06:08:10.510Z,100724.88
2023-02-22T06:10:38.666Z,100740.03
2023-02-22T06:13:07.874Z,100741.16
2023-02-22T06:15:37.238Z,100756.84
2023-02-22T06:18:20.437Z,100766.53
2023-02-22T06:20:48.990Z,100757.91
2023-02-22T06:23:17.302Z,100756.34
2023-02-22T06:25:46.645Z,100766.44
2023-02-22T06:28:14.959Z,100761.72
2023-02-22T06:30:53.454Z,100783.81
2023-02-22T06:33:25.590Z,100784.94
2023-02-22T06:35:54.686Z,100767.56
2023-02-22T06:38:27.965Z,100782.16
2023-02-22T06:40:57.063Z,100787.22
2023-02-22T06:43:25.841Z,100765.13
2023-02-22T06:45:55.476Z,100799.53
2023-02-22T06:48:25.732Z,100794.31
2023-02-22T06:50:54.081Z,100800.88
2023-02-22T06:53:22.783Z,100800.88
2023-02-22T06:55:51.002Z,100801.13
2023-02-22T06:58:19.060Z,100808.41
2023-02-22T07:00:47.142Z,100792.03
2023-02-22T07:03:17.560Z,100792.63
2023-02-22T07:05:47.346Z,100797.75
2023-02-22T07:08:15.649Z,100818.88
2023-02-22T07:10:43.655Z,100820.34
2023-02-22T07:13:11.667Z,100833.44
2023-02-22T07:15:39.653Z,100837.16
2023-02-22T07:18:08.180Z,100841.88
2023-02-22T07:20:41.111Z,100859.84
2023-02-22T07:23:16.743Z,100867.38
2023-02-22T07:25:45.081Z,100855.41
2023-02-22T07:28:13.315Z,100861.63
2023-02-22T07:30:41.421Z,100867.81
2023-02-22T07:33:13.888Z,100862.69
2023-02-22T07:35:46.741Z,100880.41
2023-02-22T07:38:18.487Z,100880.19
2023-02-22T07:40:50.223Z,100895.44
2023-02-22T07:43:20.812Z,100880.81
2023-02-22T07:45:50.780Z,100892.38
2023-02-22T07:48:20.342Z,100890.19
2023-02-22T07:50:48.903Z,100873.19
2023-02-22T07:53:21.196Z,100890.56
2023-02-22T07:55:51.163Z,100896.88
2023-02-22T07:58:21.622Z,100884.38
2023-02-22T08:00:49.697Z,100896.53
2023-02-22T08:03:20.289Z,100905.41
2023-02-22T08:05:50.604Z,100914.88
2023-02-22T08:08:20.879Z,100893.38
2023-02-22T08:10:49.547Z,100901.63
2023-02-22T08:13:18.262Z,100902.50
2023-02-22T08:15:47.259Z,100910.38
2023-02-22T08:18:19.222Z,100895.44
2023-02-22T08:20:49.373Z,100896.91
2023-02-22T08:23:22.645Z,100926.91
2023-02-22T08:25:50.755Z,100908.22
2023-02-22T08:28:22.654Z,100921.00
2023-02-22T08:30:51.632Z,100933.47
2023-02-22T08:33:22.206Z,100916.50
2023-02-22T08:35:51.959Z,100914.53
2023-02-22T08:38:25.093Z,100925.50
2023-02-22T08:40:53.330Z,100923.19
2023-02-22T08:43:23.987Z,100926.59
2023-02-22T08:45:56.146Z,100942.75
2023-02-22T08:48:25.818Z,100923.69
2023-02-22T08:50:54.125Z,100923.94
2023-02-22T08:53:23.723Z,100933.66
2023-02-22T08:55:51.800Z,100937.81
2023-02-22T08:58:19.995Z,100922.63
2023-02-22T09:00:48.060Z,100936.81
2023-02-22T09:03:16.889Z,100934.78
2023-02-22T09:05:45.772Z,100934.50
2023-02-22T09:08:14.672Z,100943.28
2023-02-22T09:10:45.431Z,100949.09
2023-02-22T09:13:14.043Z,100948.38
2023-02-22T09:15:42.562Z,100944.00
2023-02-22T09:18:14.858Z,100941.44
2023-02-22T09:20:44.442Z,100932.31
2023-02-22T09:23:14.557Z,100944.47
2023-02-22T09:25:46.562Z,100940.47
2023-02-22T09:28:15.350Z,100937.94
2023-02-22T09:30:43.956Z,100935.34
2023-02-22T09:33:18.203Z,100944.84
2023-02-22T09:35:48.051Z,100961.59
2023-02-22T09:38:18.023Z,100964.53
2023-02-22T09:40:51.982Z,100952.00
2023-02-22T09:43:32.432Z,100956.72
2023-02-22T09:46:13.963Z,100959.66
2023-02-22T09:48:57.982Z,100964.13
2023-02-22T09:51:30.070Z,100955.53
2023-02-22T09:54:02.625Z,100976.78
2023-02-22T09:56:35.103Z,100970.34
2023-02-22T09:59:07.199Z,100964.53
2023-02-22T10:01:42.728Z,100970.34
2023-02-22T10:04:19.861Z,100971.06
2023-02-22T10:07:08.128Z,100977.06
2023-02-22T10:09:42.787Z,100972.19
2023-02-22T10:12:20.954Z,100983.41
2023-02-22T10:15:21.893Z,100983.75
2023-02-22T10:18:00.814Z,100972.31
2023-02-22T10:20:43.922Z,100980.59
2023-02-22T10:23:23.709Z,100988.34
2023-02-22T10:25:57.441Z,100982.16
2023-02-22T10:28:31.682Z,100988.75
2023-02-22T10:31:06.331Z,100991.91
2023-02-22T10:33:39.687Z,100994.69
2023-02-22T10:36:17.426Z,101008.94
2023-02-22T10:38:53.006Z,101023.53
2023-02-22T10:41:27.631Z,101006.97
2023-02-22T10:43:57.384Z,101006.97
2023-02-22T10:46:28.587Z,101017.06
2023-02-22T10:49:03.694Z,101015.00
2023-02-22T10:51:32.896Z,101014.66
2023-02-22T10:54:21.139Z,101010.72
2023-02-22T10:56:51.283Z,101042.25
2023-02-22T10:59:34.186Z,101030.47
2023-02-22T11:02:11.000Z,101030.34
2023-02-22T11:04:50.870Z,101024.25
2023-02-22T11:07:23.391Z,101026.28
2023-02-22T11:09:54.717Z,101023.97
2023-02-22T11:12:29.340Z,101030.94
2023-02-22T11:14:59.280Z,101022.06
2023-02-22T11:17:32.713Z,101031.53
2023-02-22T11:20:01.669Z,101026.19
2023-02-22T11:22:33.409Z,101049.19
2023-02-22T11:25:04.353Z,101051.47
2023-02-22T11:27:40.579Z,101044.91
2023-02-22T11:30:35.509Z,101028.03
2023-02-22T11:33:23.362Z,101043.00
2023-02-22T11:35:54.238Z,101042.84
2023-02-22T11:38:24.849Z,101045.53
2023-02-22T11:41:09.289Z,101050.31
2023-02-22T11:43:37.709Z,101047.38
2023-02-22T11:46:11.036Z,101051.00
2023-02-22T11:48:44.750Z,101052.75
2023-02-22T11:51:40.188Z,101053.81
2023-02-22T11:54:29.030Z,101046.66
2023-02-22T11:57:07.357Z,101062.34
2023-02-22T11:59:43.054Z,101056.59
2023-02-22T12:02:32.435Z,101056.97
2023-02-22T12:05:22.318Z,101051.53
2023-02-22T12:08:18.913Z,101049.69
2023-02-22T12:10:59.009Z,101061.59
2023-02-22T12:13:41.576Z,101061.38
2023-02-22T12:16:20.716Z,101070.38
2023-02-22T12:19:14.554Z,101067.94
2023-02-22T12:21:48.609Z,101056.25
2023-02-22T12:24:21.506Z,101049.56
2023-02-22T12:26:55.145Z,101054.06
2023-02-22T12:29:29.581Z,101054.66
2023-02-22T12:32:03.271Z,101051.41
2023-02-22T12:34:41.532Z,101038.28
2023-02-22T12:37:19.151Z,101059.31
2023-02-22T12:40:02.219Z,101052.47
2023-02-22T12:42:48.522Z,101059.06
2023-02-22T12:45:36.420Z,101048.47
2023-02-22T12:48:26.705Z,101059.75
2023-02-22T12:51:00.961Z,101044.91
2023-02-22T12:53:40.602Z,101059.84
2023-02-22T12:56:27.890Z,101060.84
2023-02-22T12:59:02.990Z,101061.81
2023-02-22T13:01:36.408Z,101062.91
2023-02-22T13:04:19.412Z,101059.50
2023-02-22T13:07:06.899Z,101055.75
2023-02-22T13:10:02.140Z,101069.75
2023-02-22T13:12:40.192Z,101065.50
2023-02-22T13:15:20.650Z,101078.53
2023-02-22T13:18:01.950Z,101058.56
2023-02-22T13:20:35.673Z,101065.88
2023-02-22T13:23:13.071Z,101056.47
2023-02-22T13:25:48.292Z,101081.78
2023-02-22T13:28:23.655Z,101074.84
2023-02-22T13:31:07.036Z,101096.25
2023-02-22T13:33:51.637Z,101089.06
2023-02-22T13:36:30.799Z,101082.84
2023-02-22T13:39:20.551Z,101068.38
2023-02-22T13:42:10.544Z,101068.94
2023-02-22T13:45:05.156Z,101081.38
2023-02-22T13:47:46.051Z,101068.38
2023-02-22T13:50:52.072Z,101071.78
2023-02-22T13:53:25.269Z,101074.59
2023-02-22T13:56:00.776Z,101072.28
2023-02-22T13:58:29.481Z,101077.66
2023-02-22T14:01:00.160Z,101082.78
2023-02-22T14:03:41.327Z,101066.13
2023-02-22T14:06:13.176Z,101081.06
2023-02-22T14:08:48.608Z,101074.13
2023-02-22T14:11:45.997Z,101078.50
2023-02-22T14:14:19.332Z,101087.75
2023-02-22T14:17:23.142Z,101078.75
2023-02-22T14:20:30.461Z,101061.47
2023-02-22T14:23:19.564Z,101084.94
2023-02-22T14:25:49.143Z,101083.97
2023-02-22T14:28:50.831Z,101070.84
2023-02-22T14:31:34.876Z,101064.63
2023-02-22T14:34:11.500Z,101067.19
2023-02-22T14:36:51.731Z,101081.19
2023-02-22T14:39:24.979Z,101062.78
2023-02-22T14:42:01.609Z,101057.50
2023-02-22T14:44:35.990Z,101070.53
2023-02-22T14:47:08.610Z,101064.94
2023-02-22T14:49:44.250Z,101060.31
2023-02-22T14:52:23.185Z,101069.91
2023-02-22T14:54:59.870Z,101067.72
2023-02-22T14:57:39.093Z,101073.06
2023-02-22T15:00:22.848Z,101081.16
2023-02-22T15:02:57.500Z,101083.84
2023-02-22T15:05:31.276Z,101083.59
2023-02-22T15:08:00.881Z,101085.22
2023-02-22T15:10:31.878Z,101083.63
2023-02-22T15:13:21.247Z,101069.59
2023-02-22T15:15:50.737Z,101072.66
2023-02-22T15:18:32.857Z,101079.47
2023-02-22T15:21:07.259Z,101075.97
2023-02-22T15:23:44.024Z,101078.03
2023-02-22T15:26:26.793Z,101077.66
2023-02-22T15:28:57.124Z,101073.81
2023-02-22T15:31:31.738Z,101082.00
2023-02-22T15:34:11.927Z,101084.66
2023-02-22T15:36:42.594Z,101084.69
2023-02-22T15:39:20.694Z,101089.22
2023-02-22T15:41:48.780Z,101079.72
2023-02-22T15:44:23.612Z,101082.03
2023-02-22T15:46:54.566Z,101090.56
2023-02-22T15:49:25.105Z,101081.44
2023-02-22T15:52:05.692Z,101092.63
2023-02-22T15:54:41.667Z,101078.78
2023-02-22T15:57:10.446Z,101071.97
2023-02-22T15:59:44.940Z,101076.59
2023-02-22T16:02:31.546Z,101083.97
2023-02-22T16:05:03.138Z,101084.31
2023-02-22T16:07:33.372Z,101087.94
2023-02-22T16:10:09.194Z,101087.44
2023-02-22T16:12:37.698Z,101074.28
2023-02-22T16:15:16.715Z,101082.78
2023-02-22T16:18:00.999Z,101078.13
2023-02-22T16:20:35.571Z,101081.28
2023-02-22T16:23:24.956Z,101065.47
2023-02-22T16:26:14.194Z,101072.75
2023-02-22T16:28:52.027Z,101073.19
2023-02-22T16:31:25.818Z,101077.69
2023-02-22T16:33:55.138Z,101081.47
2023-02-22T16:36:26.553Z,101082.03
2023-02-22T16:38:56.333Z,101082.50
2023-02-22T16:41:24.713Z,101091.69
2023-02-22T16:43:52.812Z,101093.84
2023-02-22T16:46:21.270Z,101089.19
2023-02-22T16:48:49.559Z,101098.84
2023-02-22T16:51:24.315Z,101105.50
2023-02-22T16:53:56.249Z,101098.66
2023-02-22T16:56:31.115Z,101104.22
2023-02-22T16:59:06.226Z,101111.47
2023-02-22T17:01:35.476Z,101109.00
2023-02-22T17:04:04.734Z,101109.13
2023-02-22T17:06:32.712Z,101111.06
2023-02-22T17:09:02.093Z,101116.50
2023-02-22T17:11:30.568Z,101110.75
2023-02-22T17:14:00.113Z,101113.63
2023-02-22T17:16:29.245Z,101098.91
2023-02-22T17:18:57.733Z,101104.91
2023-02-22T17:21:26.240Z,101119.53
2023-02-22T17:23:54.328Z,101119.00
2023-02-22T17:26:26.276Z,101124.78
2023-02-22T17:28:54.292Z,101126.06
2023-02-22T17:31:28.125Z,101134.06
2023-02-22T17:33:59.296Z,101131.84
2023-02-22T17:36:27.411Z,101145.06
2023-02-22T17:38:55.808Z,101141.53
2023-02-22T17:41:25.461Z,101152.63
2023-02-22T17:43:54.572Z,101144.63
2023-02-22T17:46:22.670Z,101147.50
2023-02-22T17:48:51.892Z,101145.28
2023-02-22T17:51:19.883Z,101147.41
2023-02-22T17:53:48.122Z,101144.94
2023-02-22T17:56:19.493Z,101144.38
2023-02-22T17:58:53.307Z,101145.66
2023-02-22T18:01:27.238Z,101146.94
2023-02-22T18:03:57.367Z,101161.44
2023-02-22T18:06:28.822Z,101151.19
2023-02-22T18:08:58.574Z,101153.28
2023-02-22T18:11:27.755Z,101160.53
2023-02-22T18:13:58.783Z,101156.16
2023-02-22T18:16:27.828Z,101155.50
2023-02-22T18:19:01.782Z,101164.66
2023-02-22T18:21:29.784Z,101170.19
2023-02-22T18:23:58.713Z,101164.88
2023-02-22T18:26:28.668Z,101179.91
2023-02-22T18:28:59.971Z,101173.50
2023-02-22T18:31:28.175Z,101181.19
2023-02-22T18:33:58.482Z,101188.88
2023-02-22T18:36:27.342Z,101184.00
2023-02-22T18:38:58.279Z,101183.72
2023-02-22T18:44:43.436Z,101181.69
2023-02-22T18:47:12.995Z,101197.34
2023-02-22T18:49:43.061Z,101198.13
2023-02-22T18:52:12.209Z,101198.13
2023-02-22T18:54:40.508Z,101187.25
2023-02-22T18:57:08.972Z,101198.69
2023-02-22T18:59:38.128Z,101197.72
2023-02-22T19:02:06.393Z,101197.53
2023-02-22T19:04:36.128Z,101201.97
2023-02-22T19:07:04.123Z,101198.38
2023-02-22T19:09:32.391Z,101195.69
2023-02-22T19:12:00.476Z,101194.84
2023-02-22T19:14:36.872Z,101192.81
2023-02-22T19:17:07.533Z,101199.00
2023-02-22T19:19:37.096Z,101187.47
2023-02-22T19:22:05.506Z,101192.38
2023-02-22T19:24:33.695Z,101193.41
2023-02-22T19:27:01.890Z,101200.13
2023-02-22T19:29:31.224Z,101193.81
2023-02-22T19:31:59.610Z,101192.31
2023-02-22T19:34:28.068Z,101199.22
2023-02-22T19:37:00.719Z,101193.53
2023-02-22T19:39:33.128Z,101195.44
2023-02-22T19:42:02.069Z,101183.28
2023-02-22T19:44:36.423Z,101195.25
2023-02-22T19:47:09.211Z,101184.84
2023-02-22T19:49:41.540Z,101187.69
2023-02-22T19:52:12.115Z,101182.72
2023-02-22T19:54:40.934Z,101186.31
2023-02-22T19:57:09.492Z,101191.84
2023-02-22T19:59:38.094Z,101186.53
2023-02-22T20:02:07.773Z,101187.69
2023-02-22T20:04:37.545Z,101189.78
2023-02-22T20:07:06.241Z,101186.44
2023-02-22T20:09:37.378Z,101187.69
2023-02-22T20:12:08.766Z,101197.50
2023-02-22T20:14:37.356Z,101195.69
2023-02-22T20:17:07.153Z,101196.53
2023-02-22T20:19:45.877Z,101197.94
2023-02-22T20:22:14.043Z,101199.97
2023-02-22T20:24:43.535Z,101206.03
2023-02-22T20:27:13.084Z,101198.81
2023-02-22T20:29:41.236Z,101197.66
2023-02-22T20:32:15.100Z,101196.63
2023-02-22T20:34:47.197Z,101196.69
2023-02-22T20:37:16.005Z,101216.78
2023-02-22T20:39:46.762Z,101199.06
2023-02-22T20:42:15.593Z,101204.22
2023-02-22T20:44:45.289Z,101203.06
2023-02-22T20:47:13.312Z,101210.91
2023-02-22T20:49:41.387Z,101211.66
2023-02-22T20:52:09.335Z,101209.66
2023-02-22T20:54:38.450Z,101210.84
2023-02-22T20:57:08.136Z,101209.69
2023-02-22T20:59:36.649Z,101215.69
2023-02-22T21:02:05.173Z,101217.38
2023-02-22T21:04:35.904Z,101219.75
2023-02-22T21:07:04.376Z,101217.09
2023-02-22T21:09:33.824Z,101223.19
2023-02-22T21:12:02.013Z,101231.94
2023-02-22T21:14:38.920Z,101225.63
2023-02-22T21:17:11.195Z,101224.47
2023-02-22T21:19:39.446Z,101238.34
2023-02-22T21:22:12.351Z,101235.50
2023-02-22T21:24:40.888Z,101237.94
2023-02-22T21:27:08.876Z,101244.06
2023-02-22T21:29:38.730Z,101245.56
2023-02-22T21:32:08.748Z,101248.84
2023-02-22T21:34:37.334Z,101251.44
2023-02-22T21:37:08.390Z,101246.13
2023-02-22T21:39:36.596Z,101255.03
2023-02-22T21:42:07.445Z,101264.66
2023-02-22T21:44:38.487Z,101240.97
2023-02-22T21:47:06.628Z,101244.59
2023-02-22T21:49:35.147Z,101244.72
2023-02-22T21:52:07.765Z,101236.91
2023-02-22T21:54:35.822Z,101233.28
2023-02-22T21:57:06.304Z,101245.56
2023-02-22T21:59:35.122Z,101237.56
2023-02-22T22:02:05.726Z,101241.94
2023-02-22T22:04:35.397Z,101235.44
2023-02-22T22:07:04.572Z,101231.81
2023-02-22T22:09:37.165Z,101240.56
2023-02-22T22:12:06.178Z,101238.75
2023-02-22T22:14:36.322Z,101232.38
2023-02-22T22:17:09.405Z,101233.34
2023-02-22T22:19:40.724Z,101238.44
2023-02-22T22:22:09.271Z,101240.19
2023-02-22T22:24:46.016Z,101238.25
2023-02-22T22:27:17.476Z,101241.66
2023-02-22T22:29:45.557Z,101232.06
2023-02-22T22:32:16.278Z,101238.25
2023-02-22T22:34:44.542Z,101229.28
2023-02-22T22:37:13.376Z,101252.31
2023-02-22T22:39:41.456Z,101243.59
2023-02-22T22:42:10.619Z,101255.22
2023-02-22T22:44:42.243Z,101251.78
2023-02-22T22:47:12.399Z,101256.16
2023-02-22T22:49:42.803Z,101254.44
2023-02-22T22:52:12.116Z,101262.75
2023-02-22T22:54:40.351Z,101258.47
2023-02-22T22:57:08.727Z,101263.16
2023-02-22T22:59:37.454Z,101259.81
2023-02-22T23:02:10.655Z,101269.56
2023-02-22T23:04:39.082Z,101266.78
2023-02-22T23:07:08.825Z,101266.47
2023-02-22T23:09:40.089Z,101269.69
2023-02-22T23:12:09.916Z,101262.53
2023-02-22T23:14:44.409Z,101275.75
2023-02-22T23:17:16.326Z,101272.06
2023-02-22T23:19:47.558Z,101279.84
2023-02-22T23:22:17.000Z,101271.84
2023-02-22T23:24:45.685Z,101280.72
2023-02-22T23:27:15.913Z,101274.41
2023-02-22T23:29:47.092Z,101281.56
2023-02-22T23:32:18.943Z,101282.41
2023-02-22T23:34:49.742Z,101280.59
2023-02-22T23:37:20.950Z,101275.16
2023-02-22T23:39:51.245Z,101281.34
2023-02-22T23:42:19.677Z,101278.59
2023-02-22T23:44:49.385Z,101286.50
2023-02-22T23:47:19.107Z,101282.97
2023-02-22T23:49:49.656Z,101286.59
2023-02-22T23:52:24.630Z,101283.16
2023-02-22T23:54:54.819Z,101291.06
2023-02-22T23:57:24.459Z,101299.09
2023-02-22T23:59:57.224Z,101289.44
